createdAt,value
2022-10-18T00:01:09.053Z,34.81
2022-10-18T00:03:37.481Z,35.32
2022-10-18T00:06:06.776Z,34.88
2022-10-18T00:08:37.113Z,35.61
2022-10-18T00:11:08.768Z,35.21
2022-10-18T00:13:37.418Z,35.34
2022-10-18T00:16:11.939Z,35.92
2022-10-18T00:18:40.652Z,34.94
2022-10-18T00:21:12.223Z,34.13
2022-10-18T00:23:40.737Z,34.24
2022-10-18T00:26:13.348Z,33.37
2022-10-18T00:28:42.367Z,33.79
2022-10-18T00:31:23.593Z,32.43
2022-10-18T00:33:54.547Z,32.25
2022-10-18T00:36:23.639Z,32.28
2022-10-18T00:38:52.832Z,32.13
2022-10-18T00:41:25.665Z,32.58
2022-10-18T00:44:05.238Z,31.95
2022-10-18T00:46:35.921Z,33.38
2022-10-18T00:49:08.650Z,32.95
2022-10-18T00:51:41.690Z,34.47
2022-10-18T00:54:11.642Z,34.01
2022-10-18T00:56:40.042Z,34.00
2022-10-18T00:59:08.614Z,34.65
2022-10-18T01:01:36.637Z,34.56
2022-10-18T01:04:04.782Z,35.30
2022-10-18T01:06:38.025Z,34.45
2022-10-18T01:09:18.067Z,33.78
2022-10-18T01:12:23.960Z,33.52
2022-10-18T01:15:20.313Z,32.58
2022-10-18T01:18:02.068Z,32.54
2022-10-18T01:21:15.382Z,32.49
2022-10-18T01:24:02.276Z,32.34
2022-10-18T01:26:37.287Z,33.94
2022-10-18T01:29:42.554Z,34.83
2022-10-18T01:32:25.092Z,34.58
2022-10-18T01:35:00.003Z,34.02
2022-10-18T01:37:30.926Z,33.69
2022-10-18T01:40:00.802Z,34.97
2022-10-18T01:42:28.758Z,36.38
2022-10-18T01:45:00.157Z,36.89
2022-10-18T01:47:28.450Z,38.46
2022-10-18T01:50:06.180Z,38.32
2022-10-18T01:52:34.819Z,39.27
2022-10-18T01:55:03.726Z,38.28
2022-10-18T01:57:43.312Z,42.12
2022-10-18T02:00:24.701Z,42.50
2022-10-18T02:03:15.750Z,45.73
2022-10-18T02:05:54.672Z,47.22
2022-10-18T02:08:50.103Z,47.72
2022-10-18T02:11:18.718Z,45.04
2022-10-18T02:14:00.747Z,42.58
2022-10-18T02:16:38.078Z,40.54
2022-10-18T02:19:13.417Z,40.88
2022-10-18T02:21:43.991Z,39.97
2022-10-18T02:24:15.068Z,39.40
2022-10-18T02:26:43.552Z,38.45
2022-10-18T02:29:11.583Z,39.64
2022-10-18T02:31:50.191Z,40.42
2022-10-18T02:34:31.617Z,40.49
2022-10-18T02:37:00.998Z,40.67
2022-10-18T02:39:40.764Z,42.58
2022-10-18T02:42:10.496Z,41.93
2022-10-18T02:44:38.962Z,41.49
2022-10-18T02:47:09.134Z,40.11
2022-10-18T02:49:37.079Z,39.49
2022-10-18T02:52:05.056Z,36.99
2022-10-18T02:54:33.305Z,36.85
2022-10-18T02:57:01.294Z,39.01
2022-10-18T02:59:29.447Z,41.68
2022-10-18T03:01:57.529Z,40.17
2022-10-18T03:04:25.721Z,42.06
2022-10-18T03:06:53.761Z,39.67
2022-10-18T03:09:21.813Z,37.97
2022-10-18T03:11:50.040Z,39.35
2022-10-18T03:14:18.855Z,37.64
2022-10-18T03:16:46.908Z,36.35
2022-10-18T03:19:14.876Z,37.07
2022-10-18T03:21:42.913Z,35.90
2022-10-18T03:24:10.879Z,34.10
2022-10-18T03:26:39.008Z,34.02
2022-10-18T03:29:07.121Z,34.06
2022-10-18T03:31:35.172Z,33.72
2022-10-18T03:34:03.336Z,32.64
2022-10-18T03:36:31.543Z,34.42
2022-10-18T03:38:59.554Z,34.12
2022-10-18T03:41:28.665Z,32.00
2022-10-18T03:43:56.621Z,29.98
2022-10-18T03:46:24.792Z,31.21
2022-10-18T03:48:52.775Z,33.45
2022-10-18T03:51:20.751Z,31.86
2022-10-18T03:53:48.708Z,30.73
2022-10-18T03:56:16.688Z,29.92
2022-10-18T03:58:44.649Z,31.55
2022-10-18T04:01:12.666Z,30.34
2022-10-18T04:03:40.633Z,30.14
2022-10-18T04:06:09.997Z,30.52
2022-10-18T04:08:38.267Z,28.70
2022-10-18T04:11:10.892Z,29.88
2022-10-18T04:13:39.269Z,29.97
2022-10-18T04:16:07.439Z,27.93
2022-10-18T04:18:35.444Z,29.20
2022-10-18T04:21:03.658Z,29.40
2022-10-18T04:23:33.860Z,29.70
2022-10-18T04:26:04.891Z,30.42
2022-10-18T04:28:34.008Z,29.75
2022-10-18T04:31:02.207Z,29.22
2022-10-18T04:33:30.431Z,28.36
2022-10-18T04:35:58.412Z,29.77
2022-10-18T04:38:26.551Z,31.14
2022-10-18T04:40:54.501Z,31.24
2022-10-18T04:43:22.724Z,31.69
2022-10-18T04:45:51.237Z,31.04
2022-10-18T04:48:19.280Z,31.13
2022-10-18T04:50:51.272Z,30.96
2022-10-18T04:53:19.802Z,30.59
2022-10-18T04:55:51.185Z,32.31
2022-10-18T04:58:19.726Z,39.06
2022-10-18T05:00:47.883Z,35.17
2022-10-18T05:03:16.308Z,33.94
2022-10-18T05:06:03.140Z,35.37
2022-10-18T05:08:34.071Z,34.26
2022-10-18T05:11:03.637Z,33.46
2022-10-18T05:13:31.767Z,34.13
2022-10-18T05:16:00.808Z,34.17
2022-10-18T05:18:28.921Z,35.37
2022-10-18T05:20:57.578Z,35.64
2022-10-18T05:23:25.662Z,37.21
2022-10-18T05:25:54.115Z,41.10
2022-10-18T05:28:40.982Z,42.09
2022-10-18T05:31:12.144Z,43.68
2022-10-18T05:33:40.385Z,44.18
2022-10-18T05:36:10.322Z,42.82
2022-10-18T05:38:42.872Z,45.05
2022-10-18T05:41:12.995Z,44.25
2022-10-18T05:43:42.228Z,45.41
2022-10-18T05:46:15.068Z,40.30
2022-10-18T05:48:51.076Z,36.21
2022-10-18T05:51:19.785Z,37.24
2022-10-18T05:53:47.983Z,35.33
2022-10-18T05:56:16.834Z,34.78
2022-10-18T05:58:45.975Z,36.11
2022-10-18T06:01:14.527Z,34.74
2022-10-18T06:03:44.359Z,33.44
2022-10-18T06:06:14.785Z,33.92
2022-10-18T06:08:49.980Z,34.25
2022-10-18T06:11:20.285Z,35.65
2022-10-18T06:13:50.131Z,34.42
2022-10-18T06:16:23.047Z,35.66
2022-10-18T06:18:53.931Z,37.90
2022-10-18T06:21:23.282Z,40.18
2022-10-18T06:23:53.063Z,41.06
2022-10-18T06:26:21.851Z,45.41
2022-10-18T06:28:50.087Z,44.24
2022-10-18T06:31:21.284Z,44.51
2022-10-18T06:33:49.461Z,54.00
2022-10-18T06:36:19.665Z,65.79
2022-10-18T06:38:48.606Z,64.29
2022-10-18T06:41:17.913Z,71.08
2022-10-18T06:43:54.098Z,76.50
2022-10-18T06:46:22.018Z,77.33
2022-10-18T06:48:50.028Z,78.30
2022-10-18T06:51:18.547Z,77.59
2022-10-18T06:53:59.133Z,78.95
2022-10-18T06:56:35.587Z,77.74
2022-10-18T06:59:04.136Z,76.53
2022-10-18T07:01:32.130Z,67.38
2022-10-18T07:04:00.151Z,65.46
2022-10-18T07:06:28.132Z,64.99
2022-10-18T07:08:57.141Z,61.73
2022-10-18T07:11:26.810Z,68.80
2022-10-18T07:14:04.764Z,67.00
2022-10-18T07:16:34.744Z,64.84
2022-10-18T07:19:03.031Z,66.13
2022-10-18T07:21:31.523Z,65.63
2022-10-18T07:23:59.409Z,65.75
2022-10-18T07:26:29.875Z,65.31
2022-10-18T07:29:02.733Z,66.50
2022-10-18T07:31:30.983Z,68.87
2022-10-18T07:33:59.122Z,67.75
2022-10-18T07:36:27.345Z,67.56
2022-10-18T07:38:55.278Z,70.33
2022-10-18T07:41:23.844Z,68.65
2022-10-18T07:43:53.400Z,67.15
2022-10-18T07:46:22.660Z,67.00
2022-10-18T07:48:51.656Z,65.72
2022-10-18T07:51:20.565Z,63.73
2022-10-18T07:53:48.694Z,64.32
2022-10-18T07:56:21.261Z,63.71
2022-10-18T07:58:52.242Z,63.39
2022-10-18T08:01:25.291Z,63.81
2022-10-18T08:03:53.562Z,62.64
2022-10-18T08:06:22.815Z,61.60
2022-10-18T08:08:52.252Z,61.25
2022-10-18T08:11:23.515Z,57.48
2022-10-18T08:13:53.213Z,53.16
2022-10-18T08:16:27.338Z,51.22
2022-10-18T08:18:58.803Z,48.74
2022-10-18T08:21:27.058Z,48.57
2022-10-18T08:23:55.334Z,46.21
2022-10-18T08:26:24.868Z,45.93
2022-10-18T08:29:09.906Z,45.09
2022-10-18T08:31:40.933Z,41.68
2022-10-18T08:34:08.818Z,41.90
2022-10-18T08:36:37.359Z,38.21
2022-10-18T08:39:05.315Z,37.30
2022-10-18T08:41:49.242Z,36.64
2022-10-18T08:44:27.007Z,35.64
2022-10-18T08:47:19.102Z,35.10
2022-10-18T08:50:03.886Z,34.88
2022-10-18T08:52:35.113Z,35.73
2022-10-18T08:55:46.433Z,36.78
2022-10-18T08:58:27.196Z,36.19
2022-10-18T09:01:19.272Z,35.08
2022-10-18T09:04:27.514Z,34.35
2022-10-18T09:07:04.648Z,34.56
2022-10-18T09:10:00.148Z,35.10
2022-10-18T09:12:46.312Z,38.20
2022-10-18T09:15:40.424Z,38.74
2022-10-18T09:18:49.731Z,36.47
2022-10-18T09:21:22.850Z,36.20
2022-10-18T09:24:06.327Z,33.92
2022-10-18T09:26:44.554Z,33.96
2022-10-18T09:29:50.944Z,32.77
2022-10-18T09:32:49.111Z,30.83
2022-10-18T09:35:22.660Z,30.80
2022-10-18T09:37:55.684Z,30.01
2022-10-18T09:40:28.374Z,28.24
2022-10-18T09:43:17.426Z,26.77
2022-10-18T09:45:46.142Z,25.63
2022-10-18T09:48:28.028Z,24.46
2022-10-18T09:51:21.778Z,23.84
2022-10-18T09:53:58.871Z,22.96
2022-10-18T09:56:39.411Z,23.95
2022-10-18T09:59:49.966Z,23.92
2022-10-18T10:02:23.498Z,24.16
2022-10-18T10:04:54.460Z,24.01
2022-10-18T10:07:31.068Z,23.42
2022-10-18T10:10:14.267Z,25.34
2022-10-18T10:12:42.365Z,25.48
2022-10-18T10:15:23.545Z,25.28
2022-10-18T10:18:07.105Z,25.04
2022-10-18T10:20:56.894Z,25.43
2022-10-18T10:23:28.357Z,26.15
2022-10-18T10:25:59.301Z,26.69
2022-10-18T10:28:35.798Z,27.38
2022-10-18T10:31:25.198Z,28.23
2022-10-18T10:34:14.940Z,28.80
2022-10-18T10:36:51.911Z,27.80
2022-10-18T10:39:22.093Z,28.97
2022-10-18T10:41:49.949Z,29.14
2022-10-18T10:44:23.559Z,29.49
2022-10-18T10:46:53.017Z,29.78
2022-10-18T10:49:40.318Z,29.74
2022-10-18T10:52:28.781Z,30.58
2022-10-18T10:55:11.040Z,31.10
2022-10-18T10:57:48.495Z,32.16
2022-10-18T11:00:38.118Z,34.09
2022-10-18T11:03:27.922Z,33.82
2022-10-18T11:06:00.951Z,34.38
2022-10-18T11:08:39.232Z,34.28
2022-10-18T11:11:34.129Z,33.38
2022-10-18T11:14:25.853Z,32.24
2022-10-18T11:16:56.728Z,33.53
2022-10-18T11:20:12.007Z,35.03
2022-10-18T11:23:16.878Z,34.06
2022-10-18T11:26:07.025Z,34.62
2022-10-18T11:28:37.629Z,35.41
2022-10-18T11:31:25.304Z,34.39
2022-10-18T11:34:10.353Z,33.30
2022-10-18T11:37:29.169Z,36.55
2022-10-18T11:40:01.333Z,32.42
2022-10-18T11:42:49.119Z,32.11
2022-10-18T11:45:34.602Z,32.87
2022-10-18T11:48:16.345Z,32.52
2022-10-18T11:50:53.433Z,31.69
2022-10-18T11:53:23.949Z,31.32
2022-10-18T11:56:03.821Z,29.90
2022-10-18T11:58:31.649Z,30.83
2022-10-18T12:01:30.664Z,29.76
2022-10-18T12:04:21.218Z,29.20
2022-10-18T12:06:52.983Z,29.58
2022-10-18T12:09:26.709Z,28.21
2022-10-18T12:12:03.455Z,28.45
2022-10-18T12:14:46.272Z,29.28
2022-10-18T12:17:43.979Z,29.69
2022-10-18T12:20:23.858Z,29.15
2022-10-18T12:23:20.271Z,29.92
2022-10-18T12:26:03.726Z,29.76
2022-10-18T12:29:01.105Z,29.26
2022-10-18T12:31:55.218Z,28.03
2022-10-18T12:34:23.110Z,27.25
2022-10-18T12:37:09.642Z,26.37
2022-10-18T12:40:08.993Z,26.89
2022-10-18T12:42:43.873Z,24.93
2022-10-18T12:45:33.471Z,25.02
2022-10-18T12:48:08.079Z,24.09
2022-10-18T12:50:39.193Z,24.66
2022-10-18T12:53:10.462Z,24.29
2022-10-18T12:58:15.705Z,22.92
2022-10-18T13:00:43.828Z,23.89
2022-10-18T13:03:16.707Z,23.38
2022-10-18T13:05:55.979Z,22.45
2022-10-18T13:08:27.433Z,22.14
2022-10-18T13:11:01.323Z,19.57
2022-10-18T13:13:42.844Z,18.86
2022-10-18T13:16:22.965Z,16.95
2022-10-18T13:18:54.792Z,16.94
2022-10-18T13:21:43.506Z,15.98
2022-10-18T13:24:14.558Z,14.88
2022-10-18T13:27:42.562Z,15.13
2022-10-18T13:30:26.555Z,13.96
2022-10-18T13:33:19.438Z,15.07
2022-10-18T13:36:04.831Z,16.02
2022-10-18T13:38:41.922Z,16.70
2022-10-18T13:41:34.390Z,15.46
2022-10-18T13:44:30.687Z,14.23
2022-10-18T13:46:58.727Z,15.86
2022-10-18T13:49:39.563Z,14.12
2022-10-18T13:52:32.823Z,13.90
2022-10-18T13:55:32.633Z,15.70
2022-10-18T13:58:06.410Z,14.06
2022-10-18T14:01:11.498Z,13.88
2022-10-18T14:04:24.934Z,12.84
2022-10-18T14:07:02.317Z,13.34
2022-10-18T14:09:52.395Z,14.59
2022-10-18T14:12:40.759Z,14.43
2022-10-18T14:15:27.635Z,15.34
2022-10-18T14:18:16.407Z,13.27
2022-10-18T14:21:12.444Z,15.76
2022-10-18T14:23:44.794Z,14.31
2022-10-18T14:26:18.078Z,13.89
2022-10-18T14:29:02.916Z,11.02
2022-10-18T14:31:31.080Z,10.01
2022-10-18T14:34:00.490Z,24.65
2022-10-18T14:36:41.025Z,22.67
2022-10-18T14:39:21.264Z,17.17
2022-10-18T14:41:54.758Z,12.44
2022-10-18T14:44:29.633Z,11.16
2022-10-18T14:47:09.632Z,11.20
2022-10-18T14:49:44.058Z,11.19
2022-10-18T14:52:30.460Z,18.74
2022-10-18T14:55:02.410Z,15.75
2022-10-18T14:57:37.868Z,13.31
2022-10-18T15:00:21.959Z,12.94
2022-10-18T15:02:49.999Z,13.03
2022-10-18T15:05:23.685Z,12.93
2022-10-18T15:07:52.753Z,11.84
2022-10-18T15:10:25.979Z,12.71
2022-10-18T15:13:09.429Z,11.98
2022-10-18T15:15:38.968Z,12.24
2022-10-18T15:18:08.419Z,12.16
2022-10-18T15:20:42.933Z,12.38
2022-10-18T15:23:32.538Z,12.52
2022-10-18T15:26:07.295Z,12.49
2022-10-18T15:28:49.922Z,13.61
2022-10-18T15:31:25.782Z,13.60
2022-10-18T15:34:24.423Z,20.40
2022-10-18T15:36:55.264Z,18.70
2022-10-18T15:39:26.448Z,22.86
2022-10-18T15:42:00.239Z,20.58
2022-10-18T15:44:49.269Z,15.88
2022-10-18T15:47:21.470Z,13.75
2022-10-18T15:49:54.662Z,14.00
2022-10-18T15:52:40.848Z,14.28
2022-10-18T15:55:42.814Z,15.32
2022-10-18T15:58:17.946Z,15.07
2022-10-18T16:00:47.778Z,15.55
2022-10-18T16:03:16.684Z,16.51
2022-10-18T16:05:45.478Z,17.82
2022-10-18T16:08:37.175Z,16.60
2022-10-18T16:11:05.485Z,16.04
2022-10-18T16:13:33.998Z,15.99
2022-10-18T16:16:02.010Z,16.15
2022-10-18T16:18:30.010Z,16.69
2022-10-18T16:20:57.974Z,18.27
2022-10-18T16:23:28.923Z,17.73
2022-10-18T16:25:57.469Z,16.81
2022-10-18T16:28:26.312Z,18.80
2022-10-18T16:30:57.955Z,22.08
2022-10-18T16:33:27.104Z,34.95
2022-10-18T16:35:55.935Z,28.65
2022-10-18T16:38:35.164Z,23.80
2022-10-18T16:41:05.922Z,20.36
2022-10-18T16:43:35.260Z,19.22
2022-10-18T16:46:04.264Z,18.35
2022-10-18T16:48:33.357Z,17.78
2022-10-18T16:51:02.002Z,18.54
2022-10-18T16:53:30.049Z,17.57
2022-10-18T16:56:00.651Z,17.65
2022-10-18T16:58:30.648Z,17.88
2022-10-18T17:01:00.376Z,18.25
2022-10-18T17:03:29.949Z,18.54
2022-10-18T17:05:58.698Z,19.65
2022-10-18T17:08:28.088Z,21.13
2022-10-18T17:10:58.692Z,20.85
2022-10-18T17:13:26.779Z,20.74
2022-10-18T17:15:54.761Z,23.53
2022-10-18T17:18:26.537Z,23.95
2022-10-18T17:20:54.661Z,23.03
2022-10-18T17:23:23.001Z,21.61
2022-10-18T17:26:05.119Z,22.10
2022-10-18T17:28:38.534Z,22.11
2022-10-18T17:31:07.446Z,21.24
2022-10-18T17:33:36.035Z,22.19
2022-10-18T17:36:04.428Z,22.87
2022-10-18T17:38:32.590Z,21.50
2022-10-18T17:41:06.327Z,20.75
2022-10-18T17:43:34.532Z,20.85
2022-10-18T17:46:02.628Z,21.25
2022-10-18T17:48:30.781Z,25.44
2022-10-18T17:50:59.566Z,28.10
2022-10-18T17:53:29.151Z,23.59
2022-10-18T17:56:02.386Z,21.17
2022-10-18T17:58:32.082Z,20.97
2022-10-18T18:01:22.271Z,20.14
2022-10-18T18:03:55.347Z,23.23
2022-10-18T18:06:34.947Z,23.81
2022-10-18T18:09:07.437Z,20.19
2022-10-18T18:11:37.395Z,22.77
2022-10-18T18:14:09.023Z,24.16
2022-10-18T18:16:41.300Z,23.74
2022-10-18T18:19:10.281Z,23.70
2022-10-18T18:21:38.932Z,24.03
2022-10-18T18:24:07.792Z,26.73
2022-10-18T18:26:36.722Z,26.12
2022-10-18T18:29:05.055Z,26.35
2022-10-18T18:31:38.766Z,29.18
2022-10-18T18:34:10.285Z,28.75
2022-10-18T18:36:38.844Z,26.52
2022-10-18T18:39:07.384Z,33.98
2022-10-18T18:41:35.382Z,36.35
2022-10-18T18:44:05.497Z,35.40
2022-10-18T18:46:38.791Z,39.70
2022-10-18T18:49:08.259Z,35.31
2022-10-18T18:51:40.380Z,36.32
2022-10-18T18:54:09.783Z,43.05
2022-10-18T18:56:38.121Z,56.77
2022-10-18T18:59:06.199Z,41.60
2022-10-18T19:01:38.062Z,27.78
2022-10-18T19:04:11.005Z,26.51
2022-10-18T19:06:42.110Z,26.26
2022-10-18T19:09:19.007Z,27.40
2022-10-18T19:11:52.414Z,27.48
2022-10-18T19:16:57.506Z,25.87
2022-10-18T19:19:27.981Z,26.88
2022-10-18T19:22:01.568Z,26.24
2022-10-18T19:24:30.357Z,26.44
2022-10-18T19:27:09.664Z,27.11
2022-10-18T19:29:39.080Z,27.98
2022-10-18T19:32:12.153Z,27.72
2022-10-18T19:34:41.407Z,25.44
2022-10-18T19:37:11.471Z,26.16
2022-10-18T19:39:39.588Z,26.22
2022-10-18T19:42:11.181Z,24.07
2022-10-18T19:44:40.893Z,23.75
2022-10-18T19:47:12.695Z,23.64
2022-10-18T19:49:43.069Z,23.88
2022-10-18T19:52:12.440Z,23.54
2022-10-18T19:54:40.522Z,23.15
2022-10-18T19:57:08.736Z,23.81
2022-10-18T19:59:36.704Z,23.93
2022-10-18T20:02:04.926Z,24.59
2022-10-18T20:04:35.133Z,25.45
2022-10-18T20:07:03.445Z,25.20
2022-10-18T20:09:31.394Z,26.35
2022-10-18T20:11:59.404Z,26.54
2022-10-18T20:14:27.384Z,26.26
2022-10-18T20:16:55.313Z,26.50
2022-10-18T20:19:23.289Z,24.99
2022-10-18T20:21:51.258Z,24.80
2022-10-18T20:24:19.139Z,24.08
2022-10-18T20:26:47.142Z,24.92
2022-10-18T20:29:15.240Z,22.82
2022-10-18T20:31:43.180Z,22.20
2022-10-18T20:34:12.142Z,22.11
2022-10-18T20:36:40.350Z,21.98
2022-10-18T20:39:08.408Z,22.28
2022-10-18T20:41:38.951Z,22.38
2022-10-18T20:44:11.429Z,21.25
2022-10-18T20:46:40.162Z,21.01
2022-10-18T20:49:10.508Z,21.53
2022-10-18T20:51:38.479Z,21.07
2022-10-18T20:54:10.833Z,20.80
2022-10-18T20:56:39.734Z,21.10
2022-10-18T20:59:10.000Z,21.47
2022-10-18T21:01:39.306Z,20.06
2022-10-18T21:04:09.407Z,20.64
2022-10-18T21:06:42.985Z,20.71
2022-10-18T21:09:17.288Z,20.60
2022-10-18T21:11:51.090Z,20.25
2022-10-18T21:14:21.204Z,19.90
2022-10-18T21:16:50.672Z,19.87
2022-10-18T21:19:26.486Z,19.73
2022-10-18T21:21:56.867Z,19.51
2022-10-18T21:24:26.699Z,19.36
2022-10-18T21:26:54.865Z,19.93
2022-10-18T21:29:27.168Z,19.71
2022-10-18T21:31:58.073Z,19.65
2022-10-18T21:34:26.677Z,19.83
2022-10-18T21:36:54.835Z,19.81
2022-10-18T21:41:57.103Z,19.72
2022-10-18T21:44:25.245Z,19.76
2022-10-18T21:46:53.170Z,19.46
2022-10-18T21:49:24.883Z,19.27
2022-10-18T21:51:52.853Z,19.49
2022-10-18T21:54:20.928Z,20.57
2022-10-18T21:56:48.819Z,19.53
2022-10-18T21:59:17.735Z,20.94
2022-10-18T22:01:45.869Z,21.14
2022-10-18T22:04:22.434Z,19.75
2022-10-18T22:06:50.672Z,20.71
2022-10-18T22:09:19.415Z,20.80
2022-10-18T22:11:51.305Z,20.76
2022-10-18T22:14:19.442Z,20.42
2022-10-18T22:16:47.497Z,20.71
2022-10-18T22:19:15.662Z,19.55
2022-10-18T22:21:43.751Z,19.64
2022-10-18T22:24:11.675Z,20.35
2022-10-18T22:26:42.009Z,20.33
2022-10-18T22:29:18.891Z,19.45
2022-10-18T22:31:50.136Z,19.91
2022-10-18T22:34:28.770Z,20.29
2022-10-18T22:36:57.050Z,19.12
2022-10-18T22:39:25.159Z,18.48
2022-10-18T22:41:56.309Z,21.29
2022-10-18T22:44:24.289Z,20.62
2022-10-18T22:46:52.226Z,19.95
2022-10-18T22:49:20.142Z,19.70
2022-10-18T22:51:48.755Z,20.12
2022-10-18T22:54:16.812Z,19.60
2022-10-18T22:56:44.964Z,18.79
2022-10-18T22:59:13.756Z,18.22
2022-10-18T23:01:41.700Z,18.45
2022-10-18T23:04:10.555Z,18.39
2022-10-18T23:06:39.954Z,17.91
2022-10-18T23:09:10.327Z,19.47
2022-10-18T23:11:38.570Z,18.99
2022-10-18T23:14:07.118Z,18.60
2022-10-18T23:16:35.376Z,18.88
2022-10-18T23:19:04.092Z,18.06
2022-10-18T23:21:34.102Z,18.73
2022-10-18T23:24:02.000Z,18.43
2022-10-18T23:26:29.925Z,18.55
2022-10-18T23:28:58.054Z,18.69
2022-10-18T23:31:31.650Z,18.42
2022-10-18T23:34:04.914Z,17.88
2022-10-18T23:36:33.823Z,17.44
2022-10-18T23:39:03.414Z,17.54
2022-10-18T23:41:31.454Z,18.19
2022-10-18T23:43:59.792Z,17.75
2022-10-18T23:46:27.688Z,17.89
2022-10-18T23:48:55.698Z,18.17
2022-10-18T23:51:23.571Z,17.01
2022-10-18T23:53:51.494Z,17.59
2022-10-18T23:56:19.408Z,17.26
2022-10-18T23:58:47.397Z,17.58
